createdAt,value
2019-01-19T00:01:05.347Z,-0.72
2019-01-19T00:03:53.001Z,-0.68
2019-01-19T00:06:31.126Z,-0.72
2019-01-19T00:09:01.899Z,-0.74
2019-01-19T00:12:05.160Z,-0.72
2019-01-19T00:14:33.561Z,-0.70
2019-01-19T00:17:10.890Z,-0.77
2019-01-19T00:19:59.071Z,-0.78
2019-01-19T00:22:39.510Z,-0.81
2019-01-19T00:25:44.563Z,-0.83
2019-01-19T00:28:33.756Z,-0.82
2019-01-19T00:31:17.142Z,-0.79
2019-01-19T00:33:48.704Z,-0.75
2019-01-19T00:36:55.706Z,-0.80
2019-01-19T00:40:05.295Z,-0.82
2019-01-19T00:43:14.140Z,-0.81
2019-01-19T00:46:22.625Z,-0.77
2019-01-19T00:49:30.940Z,-0.76
2019-01-19T00:52:38.132Z,-0.88
2019-01-19T00:55:46.536Z,-0.94
2019-01-19T00:58:54.880Z,-1.02
2019-01-19T01:02:01.882Z,-1.05
2019-01-19T01:05:10.226Z,-1.02
2019-01-19T01:08:18.614Z,-1.03
2019-01-19T01:11:27.026Z,-1.10
2019-01-19T01:14:34.015Z,-1.14
2019-01-19T01:17:42.431Z,-1.19
2019-01-19T01:20:49.435Z,-1.19
2019-01-19T01:23:56.524Z,-1.16
2019-01-19T01:27:03.512Z,-1.16
2019-01-19T01:30:10.965Z,-1.12
2019-01-19T01:33:19.344Z,-1.03
2019-01-19T01:36:27.746Z,-1.02
2019-01-19T01:39:34.732Z,-1.01
2019-01-19T01:42:43.108Z,-0.96
2019-01-19T01:45:51.426Z,-0.92
2019-01-19T01:48:59.879Z,-0.93
2019-01-19T01:52:08.256Z,-0.98
2019-01-19T01:55:16.602Z,-0.96
2019-01-19T01:58:24.918Z,-0.96
2019-01-19T02:01:32.072Z,-0.98
2019-01-19T02:04:40.384Z,-1.01
2019-01-19T02:07:48.735Z,-0.97
2019-01-19T02:10:55.795Z,-0.91
2019-01-19T02:14:02.884Z,-0.89
2019-01-19T02:17:11.268Z,-0.85
2019-01-19T02:20:19.676Z,-0.86
2019-01-19T02:23:27.992Z,-1.00
2019-01-19T02:26:35.172Z,-1.01
2019-01-19T02:29:42.244Z,-1.04
2019-01-19T02:32:50.566Z,-1.10
2019-01-19T02:35:58.883Z,-1.08
2019-01-19T02:39:07.333Z,-1.09
2019-01-19T02:42:15.609Z,-1.10
2019-01-19T02:45:24.276Z,-1.05
2019-01-19T02:48:32.583Z,-0.97
2019-01-19T02:51:41.010Z,-0.94
2019-01-19T02:54:49.325Z,-0.93
2019-01-19T02:57:57.842Z,-0.93
2019-01-19T03:01:04.827Z,-0.92
2019-01-19T03:04:13.166Z,-0.95
2019-01-19T03:07:21.535Z,-0.97
2019-01-19T03:10:30.314Z,-1.01
2019-01-19T03:13:38.678Z,-1.04
2019-01-19T03:16:47.067Z,-1.10
2019-01-19T03:19:55.390Z,-1.13
2019-01-19T03:23:02.404Z,-1.09
2019-01-19T03:26:09.397Z,-1.16
2019-01-19T03:29:17.887Z,-1.28
2019-01-19T03:32:26.263Z,-1.35
2019-01-19T03:35:34.692Z,-1.39
2019-01-19T03:38:43.095Z,-1.44
2019-01-19T03:41:50.281Z,-1.46
2019-01-19T03:44:58.603Z,-1.50
2019-01-19T03:48:05.704Z,-1.50
2019-01-19T03:51:12.693Z,-1.50
2019-01-19T03:54:21.044Z,-1.52
2019-01-19T03:57:28.033Z,-1.55
2019-01-19T04:00:36.368Z,-1.57
2019-01-19T04:03:44.810Z,-1.64
2019-01-19T04:06:51.846Z,-1.64
2019-01-19T04:09:58.838Z,-1.67
2019-01-19T04:13:05.919Z,-1.72
2019-01-19T04:16:14.247Z,-1.69
2019-01-19T04:19:21.293Z,-1.68
2019-01-19T04:22:28.289Z,-1.68
2019-01-19T04:25:36.644Z,-1.70
2019-01-19T04:30:54.167Z,-1.73
2019-01-19T04:33:22.571Z,-1.73
2019-01-19T04:35:50.978Z,-1.71
2019-01-19T04:41:14.305Z,-1.82
2019-01-19T04:43:42.702Z,-2.03
2019-01-19T04:46:11.113Z,-2.20
2019-01-19T04:51:18.571Z,-2.43
2019-01-19T04:53:46.945Z,-2.53
2019-01-19T04:56:15.446Z,-2.60
2019-01-19T04:58:43.862Z,-2.68
2019-01-19T05:01:31.599Z,-2.87
2019-01-19T05:04:19.561Z,-2.87
2019-01-19T05:06:48.035Z,-2.86
2019-01-19T05:09:35.850Z,-2.72
2019-01-19T05:12:44.161Z,-2.72
2019-01-19T05:15:32.001Z,-2.62
2019-01-19T05:26:00.573Z,-2.44
2019-01-19T05:28:29.040Z,-2.42
2019-01-19T05:30:59.151Z,-2.39
2019-01-19T05:33:27.737Z,-2.39
2019-01-19T05:35:56.130Z,-2.37
2019-01-19T05:38:24.523Z,-2.38
2019-01-19T05:43:26.586Z,-2.37
2019-01-19T05:45:54.981Z,-2.35
2019-01-19T05:50:56.995Z,-2.26
2019-01-19T05:56:18.213Z,-2.21
2019-01-19T05:58:46.609Z,-2.26
2019-01-19T06:11:58.144Z,-2.44
2019-01-19T06:14:26.540Z,-2.51
2019-01-19T06:16:54.950Z,-2.57
2019-01-19T06:24:41.309Z,-2.70
2019-01-19T06:27:09.709Z,-2.73
2019-01-19T06:29:38.103Z,-2.79
2019-01-19T06:32:06.514Z,-2.89
2019-01-19T06:34:34.917Z,-2.93
2019-01-19T06:37:04.356Z,-2.94
2019-01-19T06:42:07.024Z,-3.01
2019-01-19T06:44:35.422Z,-2.98
2019-01-19T06:47:03.840Z,-3.03
2019-01-19T06:49:51.576Z,-2.96
2019-01-19T06:55:53.059Z,-2.95
2019-01-19T07:01:15.997Z,-2.98
2019-01-19T07:03:44.391Z,-3.01
2019-01-19T07:06:32.168Z,-3.01
2019-01-19T07:09:00.569Z,-3.01
2019-01-19T07:16:52.337Z,-3.12
2019-01-19T07:19:20.759Z,-3.11
2019-01-19T07:21:49.169Z,-3.12
2019-01-19T07:24:17.565Z,-3.15
2019-01-19T07:26:46.001Z,-3.11
2019-01-19T07:29:16.186Z,-3.11
2019-01-19T07:31:44.582Z,-3.10
2019-01-19T07:34:13.024Z,-3.09
2019-01-19T07:36:41.423Z,-3.07
2019-01-19T07:39:09.822Z,-3.01
2019-01-19T07:41:57.590Z,-2.88
2019-01-19T07:44:25.990Z,-2.88
2019-01-19T07:52:17.697Z,-2.81
2019-01-19T07:55:05.409Z,-2.83
2019-01-19T07:57:53.062Z,-2.87
2019-01-19T08:00:40.923Z,-2.95
2019-01-19T08:03:28.664Z,-3.04
2019-01-19T08:05:57.087Z,-3.04
2019-01-19T08:08:44.833Z,-2.99
2019-01-19T08:13:47.642Z,-2.89
2019-01-19T08:16:16.067Z,-2.72
2019-01-19T08:18:44.460Z,-2.72
2019-01-19T08:21:12.904Z,-2.73
2019-01-19T08:26:14.944Z,-2.71
2019-01-19T08:29:04.248Z,-2.68
2019-01-19T08:31:32.642Z,-2.65
2019-01-19T08:34:20.488Z,-2.69
2019-01-19T08:39:38.216Z,-2.62
2019-01-19T08:42:06.683Z,-2.57
2019-01-19T08:44:35.216Z,-2.50
2019-01-19T08:47:03.722Z,-2.47
2019-01-19T08:49:32.123Z,-2.43
2019-01-19T08:52:00.595Z,-2.42
2019-01-19T08:54:29.066Z,-2.33
2019-01-19T08:56:57.447Z,-2.24
2019-01-19T08:59:25.847Z,-2.13
2019-01-19T09:07:42.482Z,-1.77
2019-01-19T09:10:30.277Z,-1.77
2019-01-19T09:12:58.788Z,-1.51
2019-01-19T09:15:27.199Z,-1.33
2019-01-19T09:17:55.625Z,-1.16
2019-01-19T09:20:24.110Z,-1.03
2019-01-19T09:23:11.634Z,-0.93
2019-01-19T09:25:40.076Z,-0.95
2019-01-19T09:28:08.489Z,-0.91
2019-01-19T09:30:36.900Z,-0.82
2019-01-19T09:33:05.404Z,-0.71
2019-01-19T09:35:33.812Z,-0.60
2019-01-19T09:38:02.294Z,-0.50
2019-01-19T09:40:30.745Z,-0.38
2019-01-19T09:42:59.221Z,-0.30
2019-01-19T09:45:27.619Z,-0.20
2019-01-19T09:47:56.062Z,-0.13
2019-01-19T09:50:24.613Z,-0.08
2019-01-19T09:52:53.079Z,-0.02
2019-01-19T09:57:56.026Z,0.14
2019-01-19T10:01:04.570Z,0.19
2019-01-19T10:03:32.986Z,0.25
2019-01-19T10:06:01.388Z,0.29
2019-01-19T10:08:29.816Z,0.37
2019-01-19T10:16:23.038Z,0.58
2019-01-19T10:18:51.450Z,0.62
2019-01-19T10:21:19.841Z,0.73
2019-01-19T10:26:22.730Z,0.87
2019-01-19T10:31:26.843Z,0.94
2019-01-19T10:33:55.232Z,0.94
2019-01-19T10:36:24.798Z,0.94
2019-01-19T10:38:53.854Z,1.01
2019-01-19T10:41:22.253Z,1.03
2019-01-19T10:43:50.652Z,1.02
2019-01-19T10:48:53.220Z,0.97
2019-01-19T10:51:21.705Z,0.99
2019-01-19T10:53:50.101Z,1.02
2019-01-19T10:56:18.504Z,1.08
2019-01-19T11:01:21.304Z,1.17
2019-01-19T11:03:49.704Z,1.23
2019-01-19T11:06:18.104Z,1.31
2019-01-19T11:08:46.497Z,1.34
2019-01-19T11:11:14.932Z,1.37
2019-01-19T11:13:43.336Z,1.45
2019-01-19T11:16:11.736Z,1.53
2019-01-19T11:18:40.246Z,1.58
2019-01-19T11:21:08.706Z,1.65
2019-01-19T11:23:39.949Z,1.68
2019-01-19T11:28:40.905Z,1.68
2019-01-19T11:31:09.312Z,1.69
2019-01-19T11:33:37.864Z,1.66
2019-01-19T11:36:06.357Z,1.67
2019-01-19T11:38:34.745Z,1.68
2019-01-19T11:41:03.159Z,1.80
2019-01-19T11:43:31.740Z,1.92
2019-01-19T11:46:00.208Z,2.05
2019-01-19T11:48:28.673Z,2.11
2019-01-19T11:50:57.168Z,2.18
2019-01-19T11:53:25.561Z,2.20
2019-01-19T11:55:54.088Z,2.28
2019-01-19T11:58:34.431Z,2.35
2019-01-19T12:00:52.727Z,2.44
2019-01-19T12:03:21.201Z,2.60
2019-01-19T12:05:49.670Z,2.72
2019-01-19T12:08:19.677Z,2.81
2019-01-19T12:10:48.309Z,2.89
2019-01-19T12:13:16.738Z,3.03
2019-01-19T12:15:45.114Z,3.14
2019-01-19T12:18:25.484Z,3.20
2019-01-19T12:20:53.889Z,3.27
2019-01-19T12:23:22.459Z,3.24
2019-01-19T12:25:51.770Z,3.18
2019-01-19T12:28:21.029Z,3.22
2019-01-19T12:30:49.425Z,3.29
2019-01-19T12:33:17.920Z,3.35
2019-01-19T12:35:46.315Z,3.44
2019-01-19T12:38:14.713Z,3.48
2019-01-19T12:40:43.147Z,3.48
2019-01-19T12:43:51.463Z,3.46
2019-01-19T12:46:39.077Z,3.48
2019-01-19T12:49:07.479Z,3.50
2019-01-19T12:51:35.875Z,3.54
2019-01-19T12:54:44.307Z,3.60
2019-01-19T12:57:32.021Z,3.64
2019-01-19T13:00:14.585Z,3.67
2019-01-19T13:02:30.551Z,3.69
2019-01-19T13:08:34.320Z,3.58
2019-01-19T13:11:38.087Z,3.44
2019-01-19T13:14:25.867Z,3.42
2019-01-19T13:17:34.193Z,3.46
2019-01-19T13:20:42.868Z,3.52
2019-01-19T13:23:49.861Z,3.60
2019-01-19T13:26:56.873Z,3.58
2019-01-19T13:30:05.199Z,3.58
2019-01-19T13:33:13.880Z,3.58
2019-01-19T13:36:20.869Z,3.54
2019-01-19T13:39:27.969Z,3.52
2019-01-19T13:42:36.289Z,3.44
2019-01-19T13:45:44.727Z,3.45
2019-01-19T13:48:51.724Z,3.67
2019-01-19T13:52:00.071Z,3.91
2019-01-19T13:55:07.102Z,4.13
2019-01-19T13:58:15.481Z,4.39
2019-01-19T14:01:22.469Z,4.57
2019-01-19T14:04:29.520Z,4.43
2019-01-19T14:07:37.901Z,4.21
2019-01-19T14:10:44.941Z,4.21
2019-01-19T14:13:53.261Z,4.34
2019-01-19T14:17:00.283Z,4.32
2019-01-19T14:20:07.276Z,4.27
2019-01-19T14:23:14.434Z,4.35
2019-01-19T14:29:35.826Z,4.59
2019-01-19T14:32:44.142Z,4.67
2019-01-19T14:35:52.485Z,4.51
2019-01-19T14:39:00.815Z,4.28
2019-01-19T14:42:09.389Z,4.06
2019-01-19T14:45:17.709Z,3.97
2019-01-19T14:48:24.804Z,3.83
2019-01-19T14:51:33.229Z,3.75
2019-01-19T14:54:40.429Z,3.71
2019-01-19T14:57:47.427Z,3.65
2019-01-19T15:00:54.430Z,3.59
2019-01-19T15:04:01.419Z,3.41
2019-01-19T15:07:09.761Z,3.18
2019-01-19T15:10:16.752Z,2.91
2019-01-19T15:13:23.892Z,2.74
2019-01-19T15:16:32.215Z,2.60
2019-01-19T15:19:39.547Z,2.47
2019-01-19T15:22:46.709Z,2.35
2019-01-19T15:25:55.258Z,2.24
2019-01-19T15:29:02.189Z,2.11
2019-01-19T15:32:09.217Z,1.99
2019-01-19T15:35:17.539Z,1.91
2019-01-19T15:38:25.967Z,1.82
2019-01-19T15:41:32.971Z,1.74
2019-01-19T15:44:40.410Z,1.70
2019-01-19T15:47:47.395Z,1.71
2019-01-19T15:50:54.729Z,1.67
2019-01-19T15:54:03.056Z,1.54
2019-01-19T15:57:11.401Z,1.45
2019-01-19T16:00:18.404Z,1.42
2019-01-19T16:03:26.892Z,1.40
2019-01-19T16:06:33.963Z,1.37
2019-01-19T16:09:41.080Z,1.32
2019-01-19T16:12:48.071Z,1.24
2019-01-19T16:15:56.672Z,1.20
2019-01-19T16:19:03.674Z,1.19
2019-01-19T16:21:43.138Z,1.20
2019-01-19T16:24:51.522Z,1.11
2019-01-19T16:27:58.556Z,1.09
2019-01-19T16:31:05.548Z,0.95
2019-01-19T16:34:12.604Z,0.86
2019-01-19T16:37:20.924Z,0.86
2019-01-19T16:40:28.275Z,0.80
2019-01-19T16:43:35.264Z,0.79
2019-01-19T16:46:44.879Z,0.80
2019-01-19T16:49:53.741Z,0.77
2019-01-19T16:53:02.170Z,0.70
2019-01-19T16:56:10.486Z,0.61
2019-01-19T16:59:17.576Z,0.58
2019-01-19T17:02:24.569Z,0.48
2019-01-19T17:05:36.406Z,0.43
2019-01-19T17:08:43.335Z,0.49
2019-01-19T17:11:50.347Z,0.45
2019-01-19T17:14:58.460Z,0.42
2019-01-19T17:18:06.863Z,0.37
2019-01-19T17:21:13.856Z,0.39
2019-01-19T17:24:20.881Z,0.41
2019-01-19T17:27:27.900Z,0.38
2019-01-19T17:30:36.358Z,0.36
2019-01-19T17:33:44.737Z,0.34
2019-01-19T17:36:51.831Z,0.35
2019-01-19T17:39:58.834Z,0.38
2019-01-19T17:43:07.184Z,0.28
2019-01-19T17:46:14.199Z,0.09
2019-01-19T17:49:21.223Z,-0.05
2019-01-19T17:52:28.219Z,0.01
2019-01-19T17:55:36.597Z,0.05
2019-01-19T17:58:44.920Z,0.10
2019-01-19T18:01:52.004Z,0.11
2019-01-19T18:04:58.999Z,0.11
2019-01-19T18:08:07.350Z,0.04
2019-01-19T18:11:14.347Z,-0.13
2019-01-19T18:14:21.693Z,-0.26
2019-01-19T18:17:30.016Z,-0.28
2019-01-19T18:20:38.420Z,-0.36
2019-01-19T18:23:46.749Z,-0.45
2019-01-19T18:26:55.195Z,-0.54
2019-01-19T18:30:02.199Z,-0.62
2019-01-19T18:33:09.222Z,-0.63
2019-01-19T18:36:16.217Z,-0.61
2019-01-19T18:39:23.243Z,-0.61
2019-01-19T18:42:31.570Z,-0.66
2019-01-19T18:45:38.588Z,-0.67
2019-01-19T18:48:45.608Z,-0.58
2019-01-19T18:51:52.693Z,-0.46
2019-01-19T18:55:01.019Z,-0.38
2019-01-19T18:58:09.503Z,-0.43
2019-01-19T19:01:17.886Z,-0.48
2019-01-19T19:04:24.997Z,-0.56
2019-01-19T19:07:32.061Z,-0.70
2019-01-19T19:10:39.159Z,-0.77
2019-01-19T19:13:47.503Z,-0.74
2019-01-19T19:16:54.579Z,-0.73
2019-01-19T19:20:02.946Z,-0.80
2019-01-19T19:23:11.312Z,-0.88
2019-01-19T19:26:18.315Z,-1.02
2019-01-19T19:29:25.358Z,-1.15
2019-01-19T19:32:33.682Z,-1.16
2019-01-19T19:35:42.121Z,-1.15
2019-01-19T19:38:49.110Z,-1.10
2019-01-19T19:41:56.125Z,-1.11
2019-01-19T19:45:04.446Z,-1.13
2019-01-19T19:48:12.946Z,-1.19
2019-01-19T19:51:19.948Z,-1.24
2019-01-19T19:56:21.514Z,-1.35
2019-01-19T20:01:24.222Z,-1.47
2019-01-19T20:03:52.646Z,-1.49
2019-01-19T20:06:21.052Z,-1.50
2019-01-19T20:08:49.457Z,-1.56
2019-01-19T20:11:17.879Z,-1.60
2019-01-19T20:13:46.310Z,-1.59
2019-01-19T20:16:14.692Z,-1.54
2019-01-19T20:18:43.131Z,-1.49
2019-01-19T20:21:11.531Z,-1.53
2019-01-19T20:23:39.936Z,-1.57
2019-01-19T20:26:08.378Z,-1.54
2019-01-19T20:28:36.790Z,-1.52
2019-01-19T20:31:05.273Z,-1.46
2019-01-19T20:33:33.702Z,-1.42
2019-01-19T20:36:02.170Z,-1.47
2019-01-19T20:38:30.579Z,-1.50
2019-01-19T20:40:59.052Z,-1.50
2019-01-19T20:43:27.446Z,-1.47
2019-01-19T20:45:55.855Z,-1.46
2019-01-19T20:51:22.275Z,-1.46
2019-01-19T20:53:50.679Z,-1.57
2019-01-19T20:56:19.086Z,-1.68
2019-01-19T20:58:47.519Z,-1.73
2019-01-19T21:01:15.925Z,-1.82
2019-01-19T21:03:44.329Z,-1.86
2019-01-19T21:06:12.768Z,-1.88
2019-01-19T21:08:41.187Z,-1.88
2019-01-19T21:11:09.587Z,-1.88
2019-01-19T21:16:11.511Z,-1.91
2019-01-19T21:18:39.975Z,-1.97
2019-01-19T21:26:50.845Z,-2.02
2019-01-19T21:29:19.280Z,-1.99
2019-01-19T21:31:47.685Z,-1.97
2019-01-19T21:34:16.086Z,-1.91
2019-01-19T21:36:44.521Z,-1.85
2019-01-19T21:39:12.940Z,-1.88
2019-01-19T21:41:41.398Z,-1.99
2019-01-19T21:46:44.054Z,-2.24
2019-01-19T21:49:12.538Z,-2.32
2019-01-19T21:51:40.931Z,-2.27
2019-01-19T21:54:09.580Z,-2.38
2019-01-19T21:59:32.730Z,-2.62
2019-01-19T22:02:01.170Z,-2.55
2019-01-19T22:04:29.570Z,-2.55
2019-01-19T22:06:57.975Z,-2.57
2019-01-19T22:09:26.425Z,-2.52
2019-01-19T22:11:54.838Z,-2.58
2019-01-19T22:14:42.695Z,-2.57
2019-01-19T22:17:11.108Z,-2.67
2019-01-19T22:19:39.515Z,-2.82
2019-01-19T22:22:27.210Z,-2.77
2019-01-19T22:24:55.616Z,-2.79
2019-01-19T22:30:53.161Z,-3.00
2019-01-19T22:36:10.740Z,-3.07
2019-01-19T22:38:39.145Z,-3.13
2019-01-19T22:41:07.546Z,-3.27
2019-01-19T22:46:09.754Z,-3.13
2019-01-19T22:48:38.278Z,-3.12
2019-01-19T22:51:11.162Z,-3.30
2019-01-19T22:53:36.823Z,-3.30
2019-01-19T22:56:05.335Z,-3.32
2019-01-19T22:58:33.756Z,-3.37
2019-01-19T23:01:42.185Z,-3.41
2019-01-19T23:04:10.590Z,-3.42
2019-01-19T23:06:39.000Z,-3.52
2019-01-19T23:09:47.429Z,-3.49
2019-01-19T23:12:15.852Z,-3.59
2019-01-19T23:20:47.687Z,-3.68
2019-01-19T23:25:50.561Z,-3.54
2019-01-19T23:30:52.578Z,-3.57
2019-01-19T23:33:20.997Z,-3.57
2019-01-19T23:38:23.562Z,-3.67
2019-01-19T23:43:45.895Z,-3.71
2019-01-19T23:46:14.321Z,-3.85
2019-01-19T23:48:42.725Z,-3.88
2019-01-19T23:51:11.132Z,-3.85
2019-01-19T23:56:13.803Z,-4.01
2019-01-19T23:58:42.243Z,-3.99
